createdAt,value
2023-05-08T00:01:26.046Z,2.78
2023-05-08T00:03:52.806Z,2.58
2023-05-08T00:06:19.364Z,3.20
2023-05-08T00:08:45.680Z,2.58
2023-05-08T00:11:11.928Z,2.65
2023-05-08T00:13:38.222Z,2.75
2023-05-08T00:16:04.650Z,2.90
2023-05-08T00:18:31.039Z,2.42
2023-05-08T00:20:57.414Z,2.78
2023-05-08T00:23:23.680Z,2.40
2023-05-08T00:25:50.092Z,2.80
2023-05-08T00:28:16.416Z,2.70
2023-05-08T00:30:42.826Z,2.80
2023-05-08T00:33:09.478Z,2.90
2023-05-08T00:35:35.818Z,2.40
2023-05-08T00:38:02.204Z,3.10
2023-05-08T00:40:28.465Z,2.63
2023-05-08T00:42:54.744Z,2.35
2023-05-08T00:45:21.158Z,2.60
2023-05-08T00:47:47.716Z,2.83
2023-05-08T00:50:14.269Z,2.80
2023-05-08T00:52:41.422Z,2.88
2023-05-08T00:55:08.002Z,2.53
2023-05-08T00:57:35.747Z,3.03
2023-05-08T01:00:03.324Z,3.15
2023-05-08T01:02:31.645Z,3.15
2023-05-08T01:04:58.149Z,2.53
2023-05-08T01:07:24.496Z,2.72
2023-05-08T01:09:50.844Z,2.60
2023-05-08T01:12:35.148Z,2.97
2023-05-08T01:15:08.250Z,2.90
2023-05-08T01:17:36.718Z,2.80
2023-05-08T01:20:06.325Z,3.03
2023-05-08T01:23:02.012Z,2.83
2023-05-08T01:25:28.324Z,2.78
2023-05-08T01:27:54.599Z,2.97
2023-05-08T01:30:24.049Z,2.83
2023-05-08T01:32:57.863Z,2.90
2023-05-08T01:35:29.671Z,3.17
2023-05-08T01:38:08.241Z,2.88
2023-05-08T01:40:45.063Z,2.67
2023-05-08T01:43:18.231Z,3.15
2023-05-08T01:45:49.939Z,3.08
2023-05-08T01:48:31.079Z,2.95
2023-05-08T01:51:01.175Z,3.05
2023-05-08T01:53:34.850Z,2.70
2023-05-08T01:56:03.875Z,2.88
2023-05-08T01:58:30.551Z,2.92
2023-05-08T02:00:58.174Z,2.47
2023-05-08T02:03:26.003Z,2.67
2023-05-08T02:05:53.662Z,2.70
2023-05-08T02:08:21.254Z,2.80
2023-05-08T02:10:49.842Z,2.90
2023-05-08T02:13:19.194Z,2.58
2023-05-08T02:15:49.406Z,2.78
2023-05-08T02:18:18.729Z,2.83
2023-05-08T02:20:45.052Z,3.17
2023-05-08T02:23:12.305Z,2.90
2023-05-08T02:25:38.656Z,3.00
2023-05-08T02:28:06.386Z,2.70
2023-05-08T02:30:33.261Z,2.90
2023-05-08T02:33:00.912Z,3.17
2023-05-08T02:35:28.327Z,2.78
2023-05-08T02:37:56.126Z,3.03
2023-05-08T02:40:23.365Z,3.08
2023-05-08T02:42:53.105Z,2.60
2023-05-08T02:45:19.794Z,2.83
2023-05-08T02:47:54.599Z,3.00
2023-05-08T02:50:27.303Z,2.70
2023-05-08T02:52:58.395Z,2.85
2023-05-08T02:55:24.798Z,2.67
2023-05-08T02:58:04.733Z,2.83
2023-05-08T03:00:57.637Z,2.30
2023-05-08T03:03:25.746Z,2.50
2023-05-08T03:05:54.951Z,2.72
2023-05-08T03:08:25.709Z,2.88
2023-05-08T03:10:54.055Z,2.75
2023-05-08T03:13:20.986Z,3.20
2023-05-08T03:16:00.619Z,3.00
2023-05-08T03:18:31.024Z,2.80
2023-05-08T03:20:59.283Z,2.67
2023-05-08T03:23:27.494Z,2.95
2023-05-08T03:25:55.046Z,2.58
2023-05-08T03:28:21.915Z,3.03
2023-05-08T03:30:49.518Z,2.90
2023-05-08T03:33:17.616Z,2.35
2023-05-08T03:35:45.106Z,3.00
2023-05-08T03:38:11.553Z,2.70
2023-05-08T03:40:42.617Z,2.40
2023-05-08T03:43:09.579Z,2.47
2023-05-08T03:45:36.991Z,2.85
2023-05-08T03:48:04.378Z,2.47
2023-05-08T03:50:31.302Z,2.75
2023-05-08T03:53:00.942Z,2.83
2023-05-08T03:55:27.470Z,2.58
2023-05-08T03:57:53.808Z,3.00
2023-05-08T04:00:26.813Z,2.88
2023-05-08T04:02:57.740Z,2.72
2023-05-08T04:05:26.149Z,3.33
2023-05-08T04:07:54.022Z,2.72
2023-05-08T04:10:35.027Z,2.35
2023-05-08T04:13:13.331Z,3.05
2023-05-08T04:15:44.724Z,2.90
2023-05-08T04:18:14.848Z,2.38
2023-05-08T04:20:41.515Z,2.67
2023-05-08T04:23:08.829Z,2.50
2023-05-08T04:25:39.013Z,2.50
2023-05-08T04:28:05.510Z,2.40
2023-05-08T04:30:31.976Z,2.60
2023-05-08T04:32:59.686Z,2.50
2023-05-08T04:35:26.077Z,3.03
2023-05-08T04:37:52.561Z,2.30
2023-05-08T04:40:18.980Z,2.35
2023-05-08T04:42:47.294Z,2.40
2023-05-08T04:45:14.120Z,2.90
2023-05-08T04:47:40.628Z,2.58
2023-05-08T04:50:07.226Z,2.75
2023-05-08T04:52:33.543Z,2.55
2023-05-08T04:54:59.874Z,2.85
2023-05-08T04:57:26.187Z,2.38
2023-05-08T04:59:52.537Z,2.40
2023-05-08T05:02:18.986Z,2.28
2023-05-08T05:04:45.342Z,2.90
2023-05-08T05:07:11.608Z,2.50
2023-05-08T05:09:39.166Z,2.70
2023-05-08T05:12:06.418Z,2.67
2023-05-08T05:14:32.988Z,2.65
2023-05-08T05:16:59.492Z,2.80
2023-05-08T05:19:25.761Z,2.63
2023-05-08T05:21:52.114Z,2.95
2023-05-08T05:24:18.456Z,3.13
2023-05-08T05:26:44.786Z,2.80
2023-05-08T05:29:11.261Z,3.15
2023-05-08T05:31:37.716Z,2.80
2023-05-08T05:34:06.560Z,2.72
2023-05-08T05:36:33.121Z,2.88
2023-05-08T05:38:59.510Z,3.13
2023-05-08T05:41:25.887Z,3.17
2023-05-08T05:43:52.210Z,3.17
2023-05-08T05:46:18.809Z,3.45
2023-05-08T05:48:45.217Z,3.42
2023-05-08T05:51:11.937Z,3.50
2023-05-08T05:53:38.266Z,4.45
2023-05-08T05:56:05.324Z,3.72
2023-05-08T05:58:31.620Z,3.97
2023-05-08T06:00:58.389Z,4.25
2023-05-08T06:03:24.744Z,3.80
2023-05-08T06:05:52.128Z,3.85
2023-05-08T06:08:19.176Z,3.72
2023-05-08T06:10:45.454Z,4.30
2023-05-08T06:13:11.900Z,4.22
2023-05-08T06:15:38.507Z,4.13
2023-05-08T06:18:04.970Z,3.83
2023-05-08T06:20:31.417Z,3.78
2023-05-08T06:23:00.477Z,3.72
2023-05-08T06:25:28.255Z,3.88
2023-05-08T06:27:54.606Z,3.83
2023-05-08T06:30:21.000Z,3.90
2023-05-08T06:32:47.361Z,3.42
2023-05-08T06:35:18.322Z,3.45
2023-05-08T06:37:45.500Z,2.90
2023-05-08T06:40:13.076Z,3.67
2023-05-08T06:42:39.980Z,3.55
2023-05-08T06:45:07.453Z,4.22
2023-05-08T06:47:33.854Z,3.95
2023-05-08T06:50:00.416Z,3.65
2023-05-08T06:52:26.892Z,3.38
2023-05-08T06:57:49.196Z,3.92
2023-05-08T07:00:16.467Z,3.80
2023-05-08T07:02:42.914Z,4.45
2023-05-08T07:05:09.484Z,3.70
2023-05-08T07:07:46.389Z,4.20
2023-05-08T07:10:13.851Z,5.00
2023-05-08T07:12:41.223Z,4.65
2023-05-08T07:15:24.143Z,5.55
2023-05-08T07:17:51.599Z,5.43
2023-05-08T07:20:18.038Z,5.40
2023-05-08T07:22:44.397Z,5.45
2023-05-08T07:25:11.012Z,5.80
2023-05-08T07:27:37.480Z,5.57
2023-05-08T07:30:04.398Z,6.50
2023-05-08T07:32:33.784Z,6.55
2023-05-08T07:35:03.865Z,6.95
2023-05-08T07:37:30.400Z,7.13
2023-05-08T07:39:56.745Z,6.03
2023-05-08T07:42:23.256Z,7.20
2023-05-08T07:44:55.145Z,7.28
2023-05-08T07:47:27.983Z,7.70
2023-05-08T07:49:54.436Z,8.25
2023-05-08T07:52:26.929Z,8.98
2023-05-08T07:55:00.668Z,7.68
2023-05-08T07:57:27.119Z,8.52
2023-05-08T07:59:53.419Z,8.00
2023-05-08T08:02:19.774Z,8.43
2023-05-08T08:04:46.063Z,9.15
2023-05-08T08:07:12.433Z,8.82
2023-05-08T08:09:39.006Z,9.60
2023-05-08T08:12:05.615Z,9.50
2023-05-08T08:14:31.980Z,9.90
2023-05-08T08:16:58.393Z,9.68
2023-05-08T08:19:27.770Z,9.60
2023-05-08T08:21:54.084Z,9.40
2023-05-08T08:24:20.601Z,9.70
2023-05-08T08:26:47.198Z,9.95
2023-05-08T08:29:13.549Z,9.65
2023-05-08T08:31:39.911Z,9.52
2023-05-08T08:34:06.239Z,10.02
2023-05-08T08:36:32.954Z,10.68
2023-05-08T08:38:59.333Z,9.88
2023-05-08T08:41:27.921Z,10.00
2023-05-08T08:43:57.301Z,11.00
2023-05-08T08:46:28.223Z,10.07
2023-05-08T08:48:56.322Z,9.85
2023-05-08T08:51:28.626Z,9.23
2023-05-08T08:54:01.138Z,9.55
2023-05-08T08:56:27.997Z,9.98
2023-05-08T08:58:59.371Z,10.30
2023-05-08T09:01:26.937Z,11.70
2023-05-08T09:03:53.352Z,12.77
2023-05-08T09:06:19.674Z,14.73
2023-05-08T09:08:46.081Z,14.50
2023-05-08T09:11:12.357Z,15.50
2023-05-08T09:13:38.735Z,15.70
2023-05-08T09:16:05.332Z,17.00
2023-05-08T09:18:31.877Z,17.25
2023-05-08T09:21:00.274Z,18.35
2023-05-08T09:23:26.878Z,19.50
2023-05-08T09:25:53.946Z,20.58
2023-05-08T09:28:24.120Z,20.10
2023-05-08T09:30:54.880Z,21.60
2023-05-08T09:33:22.051Z,21.23
2023-05-08T09:35:48.593Z,21.67
2023-05-08T09:38:34.898Z,22.23
2023-05-08T09:43:27.491Z,21.45
2023-05-08T09:45:53.788Z,21.77
2023-05-08T09:48:36.425Z,22.67
2023-05-08T09:51:06.801Z,22.98
2023-05-08T09:53:33.155Z,22.85
2023-05-08T09:55:59.407Z,22.95
2023-05-08T09:58:37.332Z,22.95
2023-05-08T10:01:04.245Z,22.92
2023-05-08T10:03:49.226Z,21.83
2023-05-08T10:06:16.029Z,22.33
2023-05-08T10:08:42.515Z,22.25
2023-05-08T10:11:21.954Z,22.67
2023-05-08T10:13:48.328Z,23.20
2023-05-08T10:16:16.309Z,22.13
2023-05-08T10:18:47.430Z,22.98
2023-05-08T10:21:14.179Z,22.20
2023-05-08T10:23:42.442Z,22.58
2023-05-08T10:26:13.579Z,22.40
2023-05-08T10:28:39.810Z,23.27
2023-05-08T10:31:07.274Z,23.30
2023-05-08T10:33:34.641Z,22.98
2023-05-08T10:36:01.575Z,22.88
2023-05-08T10:38:28.072Z,21.40
2023-05-08T10:40:58.054Z,22.10
2023-05-08T10:43:25.036Z,22.58
2023-05-08T10:45:53.042Z,21.60
2023-05-08T10:48:22.561Z,23.95
2023-05-08T10:50:57.002Z,24.40
2023-05-08T10:53:42.130Z,21.95
2023-05-08T10:56:09.566Z,22.30
2023-05-08T10:58:37.215Z,23.08
2023-05-08T11:01:09.611Z,22.90
2023-05-08T11:03:56.124Z,22.02
2023-05-08T11:06:52.782Z,22.85
2023-05-08T11:09:23.191Z,22.88
2023-05-08T11:11:52.631Z,23.67
2023-05-08T11:14:19.676Z,21.42
2023-05-08T11:16:55.182Z,22.75
2023-05-08T11:19:22.414Z,22.67
2023-05-08T11:22:07.742Z,23.00
2023-05-08T11:24:35.314Z,21.63
2023-05-08T11:27:01.620Z,22.25
2023-05-08T11:29:27.914Z,20.55
2023-05-08T11:31:54.323Z,21.45
2023-05-08T11:34:39.524Z,21.15
2023-05-08T11:37:09.067Z,23.57
2023-05-08T11:39:38.413Z,22.52
2023-05-08T11:42:23.498Z,22.58
2023-05-08T11:44:50.256Z,20.67
2023-05-08T11:47:19.004Z,22.83
2023-05-08T11:49:45.441Z,21.77
2023-05-08T11:52:11.783Z,21.45
2023-05-08T11:54:38.147Z,22.42
2023-05-08T11:57:04.529Z,21.60
2023-05-08T11:59:34.724Z,21.33
2023-05-08T12:02:08.543Z,20.67
2023-05-08T12:04:48.620Z,18.63
2023-05-08T12:07:16.112Z,19.55
2023-05-08T12:09:43.803Z,20.05
2023-05-08T12:12:10.328Z,19.42
2023-05-08T12:14:39.582Z,18.27
2023-05-08T12:17:05.974Z,18.55
2023-05-08T12:19:32.406Z,17.40
2023-05-08T12:21:58.794Z,16.98
2023-05-08T12:24:26.129Z,16.02
2023-05-08T12:26:56.335Z,16.75
2023-05-08T12:29:25.084Z,17.92
2023-05-08T12:31:51.494Z,19.65
2023-05-08T12:34:17.912Z,18.48
2023-05-08T12:36:44.188Z,17.02
2023-05-08T12:39:15.054Z,17.65
2023-05-08T12:41:42.152Z,18.50
2023-05-08T12:44:16.588Z,16.90
2023-05-08T12:46:46.697Z,16.80
2023-05-08T12:49:13.209Z,15.07
2023-05-08T12:51:41.071Z,14.80
2023-05-08T12:54:07.424Z,14.75
2023-05-08T12:56:33.788Z,14.23
2023-05-08T12:59:00.388Z,14.50
2023-05-08T13:01:29.272Z,14.30
2023-05-08T13:04:01.414Z,14.88
2023-05-08T13:06:29.154Z,13.80
2023-05-08T13:08:56.081Z,14.60
2023-05-08T13:11:30.752Z,13.45
2023-05-08T13:13:57.086Z,14.13
2023-05-08T13:16:23.460Z,14.57
2023-05-08T13:18:49.775Z,14.70
2023-05-08T13:21:16.269Z,15.60
2023-05-08T13:23:43.367Z,13.98
2023-05-08T13:26:09.788Z,14.00
2023-05-08T13:28:36.116Z,14.05
2023-05-08T13:31:05.890Z,14.02
2023-05-08T13:33:32.600Z,16.20
2023-05-08T13:36:01.865Z,15.80
2023-05-08T13:38:28.736Z,14.68
2023-05-08T13:41:05.715Z,13.85
2023-05-08T13:43:43.159Z,12.73
2023-05-08T13:46:10.489Z,13.98
2023-05-08T13:48:37.065Z,13.77
2023-05-08T13:51:06.274Z,14.52
2023-05-08T13:53:32.801Z,14.50
2023-05-08T13:55:59.153Z,13.63
2023-05-08T13:58:25.568Z,14.45
2023-05-08T14:00:52.180Z,15.38
2023-05-08T14:03:18.692Z,14.30
2023-05-08T14:05:45.275Z,14.10
2023-05-08T14:08:11.610Z,13.95
2023-05-08T14:10:38.837Z,14.32
2023-05-08T14:13:05.549Z,14.52
2023-05-08T14:15:36.824Z,13.70
2023-05-08T14:18:03.921Z,14.23
2023-05-08T14:20:30.587Z,13.52
2023-05-08T14:23:00.033Z,13.98
2023-05-08T14:25:27.050Z,13.00
2023-05-08T14:27:53.542Z,13.02
2023-05-08T14:30:19.842Z,13.52
2023-05-08T14:32:46.466Z,13.15
2023-05-08T14:35:14.425Z,12.85
2023-05-08T14:37:41.016Z,11.85
2023-05-08T14:40:07.947Z,12.35
2023-05-08T14:42:34.574Z,12.43
2023-05-08T14:45:04.149Z,11.30
2023-05-08T14:47:33.628Z,11.98
2023-05-08T14:50:00.045Z,11.23
2023-05-08T14:52:26.339Z,11.23
2023-05-08T14:54:55.827Z,11.93
2023-05-08T14:57:22.307Z,10.75
2023-05-08T14:59:55.038Z,10.93
2023-05-08T15:02:25.102Z,11.18
2023-05-08T15:04:51.587Z,10.90
2023-05-08T15:07:20.747Z,10.80
2023-05-08T15:09:47.873Z,9.93
2023-05-08T15:12:14.261Z,10.00
2023-05-08T15:14:40.750Z,10.77
2023-05-08T15:17:07.068Z,10.77
2023-05-08T15:19:33.408Z,11.85
2023-05-08T15:21:59.765Z,10.88
2023-05-08T15:24:26.257Z,10.38
2023-05-08T15:26:52.566Z,11.00
2023-05-08T15:29:18.881Z,10.30
2023-05-08T15:31:45.297Z,10.48
2023-05-08T15:34:11.758Z,10.65
2023-05-08T15:36:38.091Z,10.27
2023-05-08T15:39:04.484Z,10.10
2023-05-08T15:41:30.878Z,10.23
2023-05-08T15:43:57.153Z,10.10
2023-05-08T15:46:23.511Z,9.27
2023-05-08T15:48:49.887Z,9.18
2023-05-08T15:51:16.323Z,8.95
2023-05-08T15:53:42.693Z,9.63
2023-05-08T15:56:09.015Z,9.32
2023-05-08T15:58:36.878Z,8.98
2023-05-08T16:01:04.792Z,9.18
2023-05-08T16:03:31.591Z,9.45
2023-05-08T16:05:58.013Z,9.43
2023-05-08T16:08:24.363Z,9.07
2023-05-08T16:10:50.725Z,9.75
2023-05-08T16:13:17.114Z,9.55
2023-05-08T16:15:43.704Z,8.80
2023-05-08T16:18:10.348Z,8.93
2023-05-08T16:20:36.723Z,9.23
2023-05-08T16:23:03.140Z,8.80
2023-05-08T16:25:30.550Z,8.80
2023-05-08T16:27:56.839Z,9.10
2023-05-08T16:30:23.229Z,8.73
2023-05-08T16:32:49.672Z,9.00
2023-05-08T16:35:16.256Z,8.82
2023-05-08T16:37:43.042Z,9.00
2023-05-08T16:40:09.793Z,9.52
2023-05-08T16:42:36.936Z,8.98
2023-05-08T16:45:04.042Z,9.40
2023-05-08T16:47:30.464Z,9.02
2023-05-08T16:49:56.774Z,8.80
2023-05-08T16:52:23.069Z,9.18
2023-05-08T16:54:49.404Z,8.80
2023-05-08T16:57:15.729Z,8.68
2023-05-08T16:59:42.401Z,8.77
2023-05-08T17:02:08.851Z,8.63
2023-05-08T17:04:35.460Z,8.60
2023-05-08T17:07:01.753Z,8.40
2023-05-08T17:09:28.203Z,9.00
2023-05-08T17:11:54.529Z,8.68
2023-05-08T17:14:21.024Z,8.10
2023-05-08T17:16:47.454Z,7.97
2023-05-08T17:19:13.986Z,7.85
2023-05-08T17:21:40.352Z,7.65
2023-05-08T17:24:06.980Z,7.95
2023-05-08T17:26:33.600Z,8.85
2023-05-08T17:28:59.997Z,8.68
2023-05-08T17:31:26.508Z,7.55
2023-05-08T17:33:52.992Z,7.15
2023-05-08T17:36:19.377Z,7.40
2023-05-08T17:38:47.254Z,6.60
2023-05-08T17:41:13.979Z,6.70
2023-05-08T17:43:40.613Z,6.50
2023-05-08T17:46:07.726Z,7.45
2023-05-08T17:48:35.988Z,6.88
2023-05-08T17:51:03.104Z,7.18
2023-05-08T17:53:30.537Z,6.68
2023-05-08T17:55:57.435Z,7.35
2023-05-08T17:58:24.058Z,7.10
2023-05-08T18:00:50.552Z,6.55
2023-05-08T18:03:17.003Z,7.22
2023-05-08T18:05:43.687Z,6.78
2023-05-08T18:08:10.072Z,6.53
2023-05-08T18:10:36.464Z,6.32
2023-05-08T18:13:02.843Z,6.60
2023-05-08T18:15:29.288Z,7.00
2023-05-08T18:17:55.820Z,6.38
2023-05-08T18:20:22.965Z,7.18
2023-05-08T18:22:49.556Z,5.93
2023-05-08T18:25:15.900Z,5.88
2023-05-08T18:27:42.752Z,6.18
2023-05-08T18:30:09.433Z,6.63
2023-05-08T18:32:36.749Z,6.40
2023-05-08T18:35:03.424Z,6.15
2023-05-08T18:37:29.825Z,6.57
2023-05-08T18:39:56.404Z,6.30
2023-05-08T18:42:22.945Z,6.18
2023-05-08T18:44:49.459Z,6.70
2023-05-08T18:47:15.826Z,6.22
2023-05-08T18:49:43.732Z,6.10
2023-05-08T18:52:10.120Z,6.88
2023-05-08T18:54:36.436Z,5.85
2023-05-08T18:57:02.770Z,6.57
2023-05-08T18:59:29.043Z,6.20
2023-05-08T19:01:55.489Z,6.18
2023-05-08T19:04:21.807Z,6.00
2023-05-08T19:06:48.057Z,6.38
2023-05-08T19:09:14.457Z,6.75
2023-05-08T19:11:40.812Z,6.55
2023-05-08T19:14:10.389Z,7.03
2023-05-08T19:16:36.751Z,6.75
2023-05-08T19:19:03.075Z,6.22
2023-05-08T19:21:29.500Z,6.53
2023-05-08T19:23:55.791Z,6.82
2023-05-08T19:26:22.984Z,6.53
2023-05-08T19:28:49.320Z,7.05
2023-05-08T19:31:15.660Z,6.93
2023-05-08T19:33:42.018Z,7.38
2023-05-08T19:36:08.312Z,7.15
2023-05-08T19:38:34.669Z,7.10
2023-05-08T19:41:01.005Z,6.18
2023-05-08T19:43:27.262Z,7.00
2023-05-08T19:45:53.673Z,6.30
2023-05-08T19:48:20.398Z,6.30
2023-05-08T19:50:46.845Z,6.03
2023-05-08T19:53:13.134Z,6.25
2023-05-08T19:55:39.471Z,6.20
2023-05-08T19:58:05.780Z,6.85
2023-05-08T20:00:32.030Z,5.97
2023-05-08T20:02:58.377Z,6.10
2023-05-08T20:05:24.763Z,5.82
2023-05-08T20:07:51.132Z,5.90
2023-05-08T20:10:17.541Z,5.03
2023-05-08T20:12:43.885Z,6.00
2023-05-08T20:15:10.465Z,6.05
2023-05-08T20:17:36.854Z,5.25
2023-05-08T20:20:03.421Z,5.47
2023-05-08T20:22:29.750Z,6.07
2023-05-08T20:24:56.137Z,6.15
2023-05-08T20:27:22.370Z,6.00
2023-05-08T20:29:48.719Z,6.20
2023-05-08T20:32:16.388Z,5.57
2023-05-08T20:34:44.084Z,6.10
2023-05-08T20:37:10.527Z,5.50
2023-05-08T20:39:36.829Z,5.78
2023-05-08T20:42:03.182Z,5.93
2023-05-08T20:44:29.519Z,5.82
2023-05-08T20:46:55.816Z,6.07
2023-05-08T20:49:22.120Z,5.65
2023-05-08T20:51:48.447Z,7.18
2023-05-08T20:54:14.691Z,7.22
2023-05-08T20:56:40.964Z,6.13
2023-05-08T20:59:07.416Z,6.75
2023-05-08T21:01:33.739Z,6.72
2023-05-08T21:04:00.229Z,6.95
2023-05-08T21:06:26.547Z,7.90
2023-05-08T21:08:52.853Z,7.05
2023-05-08T21:11:19.199Z,8.40
2023-05-08T21:13:48.586Z,7.70
2023-05-08T21:16:17.251Z,7.07
2023-05-08T21:18:43.641Z,7.80
2023-05-08T21:21:19.925Z,7.28
2023-05-08T21:23:46.269Z,7.00
2023-05-08T21:26:12.628Z,7.05
2023-05-08T21:28:38.984Z,7.00
2023-05-08T21:31:05.888Z,6.60
2023-05-08T21:33:33.680Z,7.00
2023-05-08T21:36:00.010Z,7.03
2023-05-08T21:38:26.371Z,7.45
2023-05-08T21:40:53.641Z,6.72
2023-05-08T21:43:19.957Z,7.55
2023-05-08T21:45:46.221Z,7.35
2023-05-08T21:48:13.008Z,7.07
2023-05-08T21:50:39.332Z,7.57
2023-05-08T21:53:05.725Z,6.47
2023-05-08T21:55:32.505Z,6.68
2023-05-08T21:57:58.919Z,6.45
2023-05-08T22:00:25.368Z,6.45
2023-05-08T22:02:51.746Z,6.65
2023-05-08T22:05:18.135Z,6.28
2023-05-08T22:07:44.479Z,5.75
2023-05-08T22:10:11.656Z,6.95
2023-05-08T22:12:37.970Z,5.82
2023-05-08T22:15:14.988Z,7.88
2023-05-08T22:17:46.987Z,5.90
2023-05-08T22:20:16.855Z,5.85
2023-05-08T22:22:43.195Z,7.68
2023-05-08T22:25:09.578Z,6.60
2023-05-08T22:27:36.178Z,6.10
2023-05-08T22:30:02.601Z,7.03
2023-05-08T22:32:29.079Z,6.57
2023-05-08T22:34:58.315Z,6.57
2023-05-08T22:37:25.241Z,6.22
2023-05-08T22:39:51.536Z,6.03
2023-05-08T22:42:18.061Z,6.30
2023-05-08T22:44:44.993Z,6.07
2023-05-08T22:47:11.972Z,6.03
2023-05-08T22:49:39.504Z,6.53
2023-05-08T22:52:06.365Z,6.32
2023-05-08T22:54:32.916Z,6.40
2023-05-08T22:56:59.392Z,6.45
2023-05-08T22:59:27.289Z,6.18
2023-05-08T23:01:53.837Z,6.72
2023-05-08T23:04:20.324Z,6.93
2023-05-08T23:06:46.670Z,6.55
2023-05-08T23:09:13.002Z,6.53
2023-05-08T23:11:39.334Z,5.65
2023-05-08T23:14:05.591Z,5.95
2023-05-08T23:16:31.992Z,6.25
2023-05-08T23:18:58.419Z,5.70
2023-05-08T23:21:24.743Z,6.07
2023-05-08T23:23:51.123Z,6.45
2023-05-08T23:26:17.967Z,6.57
2023-05-08T23:28:44.262Z,6.25
2023-05-08T23:31:10.644Z,6.68
2023-05-08T23:33:36.979Z,6.65
2023-05-08T23:36:03.305Z,6.18
2023-05-08T23:38:29.567Z,6.50
2023-05-08T23:40:55.845Z,6.13
2023-05-08T23:43:22.181Z,6.05
2023-05-08T23:45:49.374Z,6.00
2023-05-08T23:48:16.304Z,6.57
2023-05-08T23:50:42.703Z,5.93
2023-05-08T23:53:09.177Z,5.40
2023-05-08T23:55:38.984Z,6.05
2023-05-08T23:58:05.292Z,6.45
